createdAt,value
2023-07-24T00:02:23.210Z,21.90
2023-07-24T00:04:51.368Z,22.00
2023-07-24T00:07:19.538Z,22.00
2023-07-24T00:09:47.602Z,22.00
2023-07-24T00:12:15.574Z,21.90
2023-07-24T00:14:44.886Z,22.00
2023-07-24T00:17:12.905Z,22.10
2023-07-24T00:19:41.007Z,22.20
2023-07-24T00:22:09.157Z,21.90
2023-07-24T00:24:37.185Z,22.10
2023-07-24T00:27:05.676Z,22.20
2023-07-24T00:29:33.909Z,22.40
2023-07-24T00:32:03.297Z,22.60
2023-07-24T00:34:31.244Z,22.70
2023-07-24T00:36:59.309Z,22.70
2023-07-24T00:39:29.412Z,22.70
2023-07-24T00:41:58.782Z,22.80
2023-07-24T00:44:26.882Z,22.60
2023-07-24T00:46:56.585Z,22.30
2023-07-24T00:49:26.548Z,22.00
2023-07-24T00:51:55.008Z,21.80
2023-07-24T00:54:24.368Z,21.60
2023-07-24T00:56:52.883Z,21.50
2023-07-24T00:59:23.154Z,21.20
2023-07-24T01:01:51.564Z,21.20
2023-07-24T01:04:20.686Z,21.40
2023-07-24T01:06:50.132Z,21.80
2023-07-24T01:09:18.233Z,22.00
2023-07-24T01:11:49.777Z,21.30
2023-07-24T01:14:23.237Z,21.10
2023-07-24T01:16:51.968Z,21.20
2023-07-24T01:19:34.718Z,21.40
2023-07-24T01:22:17.141Z,21.00
2023-07-24T01:24:55.108Z,21.20
2023-07-24T01:27:26.193Z,21.10
2023-07-24T01:29:54.784Z,20.40
2023-07-24T01:32:23.195Z,20.20
2023-07-24T01:34:51.904Z,20.00
2023-07-24T01:37:22.036Z,20.10
2023-07-24T01:39:50.470Z,20.40
2023-07-24T01:42:18.861Z,20.70
2023-07-24T01:44:53.620Z,20.90
2023-07-24T01:47:21.825Z,21.30
2023-07-24T01:49:50.524Z,21.50
2023-07-24T01:52:18.595Z,21.70
2023-07-24T01:54:46.578Z,21.60
2023-07-24T01:57:14.617Z,21.50
2023-07-24T01:59:43.118Z,21.60
2023-07-24T02:02:12.598Z,21.50
2023-07-24T02:04:40.797Z,21.10
2023-07-24T02:07:08.850Z,20.80
2023-07-24T02:09:37.025Z,20.40
2023-07-24T02:12:05.859Z,20.20
2023-07-24T02:14:33.885Z,20.00
2023-07-24T02:17:01.986Z,19.90
2023-07-24T02:19:31.887Z,20.00
2023-07-24T02:22:00.070Z,20.00
2023-07-24T02:24:28.248Z,20.00
2023-07-24T02:26:56.312Z,20.10
2023-07-24T02:29:24.968Z,20.30
2023-07-24T02:31:53.233Z,20.60
2023-07-24T02:34:25.235Z,20.80
2023-07-24T02:36:55.104Z,21.20
2023-07-24T02:39:23.224Z,21.50
2023-07-24T02:41:51.178Z,21.80
2023-07-24T02:44:19.303Z,21.90
2023-07-24T02:46:47.354Z,21.70
2023-07-24T02:49:15.362Z,21.60
2023-07-24T02:51:43.323Z,21.20
2023-07-24T02:54:12.721Z,21.40
2023-07-24T02:56:41.266Z,21.30
2023-07-24T02:59:09.321Z,21.10
2023-07-24T03:01:38.072Z,21.10
2023-07-24T03:04:06.653Z,21.30
2023-07-24T03:06:34.715Z,21.50
2023-07-24T03:09:02.947Z,21.10
2023-07-24T03:11:32.343Z,20.50
2023-07-24T03:14:00.385Z,20.20
2023-07-24T03:16:28.681Z,20.30
2023-07-24T03:18:56.886Z,20.50
2023-07-24T03:21:25.150Z,20.20
2023-07-24T03:23:53.206Z,20.20
2023-07-24T03:26:21.238Z,20.60
2023-07-24T03:28:50.594Z,21.00
2023-07-24T03:31:19.367Z,21.30
2023-07-24T03:33:47.992Z,21.50
2023-07-24T03:36:16.315Z,21.30
2023-07-24T03:38:44.353Z,21.10
2023-07-24T03:41:12.389Z,20.70
2023-07-24T03:43:40.428Z,20.50
2023-07-24T03:46:09.825Z,20.30
2023-07-24T03:48:37.956Z,20.40
2023-07-24T03:51:05.948Z,20.20
2023-07-24T03:53:34.046Z,19.90
2023-07-24T03:56:02.139Z,20.00
2023-07-24T03:58:30.542Z,20.20
2023-07-24T04:00:58.670Z,20.40
2023-07-24T04:03:28.383Z,20.80
2023-07-24T04:05:56.507Z,21.00
2023-07-24T04:08:24.661Z,20.70
2023-07-24T04:10:53.271Z,20.50
2023-07-24T04:13:21.401Z,20.90
2023-07-24T04:15:49.545Z,21.30
2023-07-24T04:18:17.533Z,21.50
2023-07-24T04:20:46.835Z,21.80
2023-07-24T04:23:14.826Z,22.00
2023-07-24T04:25:42.908Z,21.90
2023-07-24T04:28:11.435Z,21.70
2023-07-24T04:30:39.587Z,21.80
2023-07-24T04:33:07.723Z,22.00
2023-07-24T04:35:35.813Z,21.80
2023-07-24T04:38:05.453Z,21.30
2023-07-24T04:40:33.502Z,20.90
2023-07-24T04:43:01.885Z,21.10
2023-07-24T04:45:29.896Z,21.50
2023-07-24T04:47:57.877Z,21.80
2023-07-24T04:50:25.891Z,21.80
2023-07-24T04:52:53.887Z,21.40
2023-07-24T04:55:23.347Z,21.10
2023-07-24T04:57:51.352Z,21.50
2023-07-24T05:00:19.516Z,21.80
2023-07-24T05:02:47.760Z,21.80
2023-07-24T05:05:16.093Z,22.00
2023-07-24T05:07:44.064Z,22.20
2023-07-24T05:10:12.249Z,22.20
2023-07-24T05:12:43.278Z,22.40
2023-07-24T05:15:11.981Z,22.50
2023-07-24T05:17:39.989Z,22.60
2023-07-24T05:20:09.615Z,22.30
2023-07-24T05:22:37.611Z,21.80
2023-07-24T05:25:06.589Z,21.70
2023-07-24T05:27:34.609Z,21.70
2023-07-24T05:30:04.283Z,21.70
2023-07-24T05:32:32.638Z,21.90
2023-07-24T05:35:00.700Z,22.00
2023-07-24T05:37:28.675Z,22.20
2023-07-24T05:39:56.881Z,22.30
2023-07-24T05:42:24.854Z,22.10
2023-07-24T05:44:52.829Z,22.10
2023-07-24T05:47:29.734Z,22.10
2023-07-24T05:49:57.788Z,21.90
2023-07-24T05:52:25.995Z,21.70
2023-07-24T05:54:54.034Z,21.70
2023-07-24T05:57:22.178Z,21.90
2023-07-24T05:59:51.785Z,22.00
2023-07-24T06:02:19.841Z,21.80
2023-07-24T06:04:49.358Z,21.70
2023-07-24T06:07:17.428Z,21.70
2023-07-24T06:09:45.536Z,21.60
2023-07-24T06:12:13.602Z,21.50
2023-07-24T06:14:41.732Z,21.50
2023-07-24T06:17:09.788Z,21.40
2023-07-24T06:19:37.782Z,21.60
2023-07-24T06:22:07.616Z,21.70
2023-07-24T06:24:35.664Z,21.90
2023-07-24T06:27:04.005Z,22.00
2023-07-24T06:29:32.313Z,22.00
2023-07-24T06:32:00.350Z,21.90
2023-07-24T06:34:28.781Z,21.60
2023-07-24T06:37:03.552Z,21.60
2023-07-24T06:39:43.123Z,21.50
2023-07-24T06:42:11.265Z,21.40
2023-07-24T06:44:39.293Z,21.40
2023-07-24T06:47:07.641Z,21.40
2023-07-24T06:49:36.799Z,21.60
2023-07-24T06:52:05.378Z,21.50
2023-07-24T06:54:33.413Z,21.50
2023-07-24T06:57:02.845Z,21.60
2023-07-24T06:59:31.001Z,21.70
2023-07-24T07:01:59.159Z,21.80
2023-07-24T07:04:27.395Z,22.00
2023-07-24T07:06:55.411Z,21.70
2023-07-24T07:09:23.547Z,21.90
2023-07-24T07:11:51.589Z,21.90
2023-07-24T07:14:20.978Z,21.80
2023-07-24T07:16:49.626Z,21.80
2023-07-24T07:19:17.734Z,21.90
2023-07-24T07:21:45.738Z,21.80
2023-07-24T07:24:13.861Z,21.70
2023-07-24T07:26:42.065Z,21.70
2023-07-24T07:29:12.333Z,21.70
2023-07-24T07:31:41.867Z,21.60
2023-07-24T07:34:09.969Z,21.40
2023-07-24T07:36:37.953Z,21.40
2023-07-24T07:39:06.114Z,21.40
2023-07-24T07:41:34.177Z,21.40
2023-07-24T07:44:02.231Z,21.30
2023-07-24T07:46:30.560Z,21.50
2023-07-24T07:49:00.214Z,21.50
2023-07-24T07:51:28.319Z,21.50
2023-07-24T07:53:56.406Z,21.40
2023-07-24T07:56:24.489Z,21.20
2023-07-24T07:58:52.563Z,21.00
2023-07-24T08:01:20.617Z,20.80
2023-07-24T08:03:48.699Z,20.60
2023-07-24T08:06:18.101Z,20.40
2023-07-24T08:08:46.259Z,20.30
2023-07-24T08:11:14.405Z,20.20
2023-07-24T08:13:42.578Z,20.30
2023-07-24T08:16:19.310Z,20.30
2023-07-24T08:18:48.078Z,20.50
2023-07-24T08:21:17.653Z,20.60
2023-07-24T08:23:45.727Z,20.40
2023-07-24T08:26:13.806Z,20.50
2023-07-24T08:28:43.293Z,20.50
2023-07-24T08:31:11.639Z,20.80
2023-07-24T08:33:39.871Z,21.00
2023-07-24T08:36:09.484Z,21.00
2023-07-24T08:38:38.931Z,21.10
2023-07-24T08:41:08.304Z,21.20
2023-07-24T08:43:37.810Z,21.20
2023-07-24T08:46:06.945Z,21.20
2023-07-24T08:48:37.125Z,21.30
2023-07-24T08:51:06.282Z,21.30
2023-07-24T08:53:36.737Z,21.40
2023-07-24T08:56:07.157Z,21.50
2023-07-24T08:58:36.033Z,21.60
2023-07-24T09:01:05.711Z,21.60
2023-07-24T09:03:34.762Z,21.70
2023-07-24T09:06:04.845Z,21.80
2023-07-24T09:08:33.870Z,22.00
2023-07-24T09:11:02.741Z,22.10
2023-07-24T09:13:33.079Z,22.30
2023-07-24T09:16:01.201Z,22.40
2023-07-24T09:18:29.288Z,22.40
2023-07-24T09:20:57.452Z,22.50
2023-07-24T09:23:29.856Z,22.30
2023-07-24T09:25:57.987Z,22.20
2023-07-24T09:28:26.215Z,22.10
2023-07-24T09:30:57.252Z,22.10
2023-07-24T09:33:25.724Z,22.30
2023-07-24T09:36:01.005Z,22.20
2023-07-24T09:38:29.071Z,22.20
2023-07-24T09:40:59.239Z,22.20
2023-07-24T09:46:01.933Z,22.30
2023-07-24T09:51:02.030Z,22.10
2023-07-24T09:53:35.847Z,22.10
2023-07-24T09:56:06.170Z,22.30
2023-07-24T09:58:36.194Z,22.30
2023-07-24T10:01:07.883Z,22.40
2023-07-24T10:03:38.239Z,22.30
2023-07-24T10:06:11.607Z,22.40
2023-07-24T10:08:41.214Z,22.30
2023-07-24T10:11:09.803Z,22.40
2023-07-24T10:13:41.496Z,22.30
2023-07-24T10:16:11.616Z,22.10
2023-07-24T10:18:45.773Z,21.90
2023-07-24T10:21:14.851Z,22.00
2023-07-24T10:23:45.077Z,21.90
2023-07-24T10:26:13.403Z,21.90
2023-07-24T10:28:43.040Z,21.80
2023-07-24T10:31:24.028Z,21.80
2023-07-24T10:33:53.065Z,21.80
2023-07-24T10:36:23.900Z,21.80
2023-07-24T10:38:56.312Z,21.80
2023-07-24T10:41:24.697Z,21.70
2023-07-24T10:43:54.088Z,21.80
2023-07-24T10:46:23.975Z,21.80
2023-07-24T10:48:53.520Z,21.70
2023-07-24T10:51:23.251Z,21.70
2023-07-24T10:53:51.986Z,21.70
2023-07-24T10:56:19.973Z,21.80
2023-07-24T10:58:48.031Z,21.80
2023-07-24T11:01:16.846Z,22.00
2023-07-24T11:03:46.706Z,22.20
2023-07-24T11:06:16.320Z,22.10
2023-07-24T11:08:44.865Z,22.00
2023-07-24T11:11:13.430Z,22.20
2023-07-24T11:13:41.402Z,22.40
2023-07-24T11:16:10.655Z,22.50
2023-07-24T11:18:54.461Z,22.50
2023-07-24T11:21:25.069Z,22.70
2023-07-24T11:23:54.343Z,22.70
2023-07-24T11:26:22.952Z,22.70
2023-07-24T11:28:51.778Z,22.60
2023-07-24T11:31:26.337Z,22.70
2023-07-24T11:33:56.344Z,22.70
2023-07-24T11:36:25.088Z,22.80
2023-07-24T11:38:53.397Z,22.80
2023-07-24T11:41:22.281Z,22.80
2023-07-24T11:43:52.082Z,22.90
2023-07-24T11:46:27.590Z,23.00
2023-07-24T11:48:58.253Z,23.10
2023-07-24T11:51:29.585Z,23.20
2023-07-24T11:54:08.275Z,23.30
2023-07-24T11:56:36.453Z,23.10
2023-07-24T11:59:12.260Z,23.00
2023-07-24T12:01:40.489Z,23.00
2023-07-24T12:04:10.232Z,23.00
2023-07-24T12:06:40.086Z,23.10
2023-07-24T12:09:09.024Z,23.00
2023-07-24T12:11:41.736Z,22.90
2023-07-24T12:14:09.808Z,22.90
2023-07-24T12:16:37.922Z,23.00
2023-07-24T12:19:07.154Z,23.00
2023-07-24T12:21:36.752Z,23.30
2023-07-24T12:24:05.070Z,23.50
2023-07-24T12:26:33.117Z,23.80
2023-07-24T12:29:01.626Z,23.90
2023-07-24T12:31:30.667Z,24.00
2023-07-24T12:33:58.953Z,23.70
2023-07-24T12:36:27.230Z,23.40
2023-07-24T12:38:56.690Z,23.70
2023-07-24T12:41:24.709Z,23.90
2023-07-24T12:43:52.793Z,23.80
2023-07-24T12:46:20.851Z,23.90
2023-07-24T12:48:48.963Z,24.00
2023-07-24T12:51:16.987Z,24.00
2023-07-24T12:53:50.852Z,24.10
2023-07-24T12:56:27.241Z,24.10
2023-07-24T12:58:55.542Z,24.20
2023-07-24T13:01:25.134Z,24.10
2023-07-24T13:03:53.317Z,24.10
2023-07-24T13:06:21.521Z,24.00
2023-07-24T13:08:50.124Z,24.00
2023-07-24T13:11:18.369Z,24.10
2023-07-24T13:13:47.696Z,24.10
2023-07-24T13:16:16.606Z,24.10
2023-07-24T13:18:44.850Z,24.10
2023-07-24T13:21:13.144Z,24.10
2023-07-24T13:23:41.350Z,24.20
2023-07-24T13:26:11.647Z,24.40
2023-07-24T13:28:39.816Z,24.50
2023-07-24T13:31:16.557Z,24.30
2023-07-24T13:33:44.970Z,24.40
2023-07-24T13:36:13.309Z,24.50
2023-07-24T13:38:42.305Z,24.70
2023-07-24T13:41:10.638Z,24.80
2023-07-24T13:43:38.672Z,24.90
2023-07-24T13:46:08.588Z,25.00
2023-07-24T13:48:37.956Z,25.10
2023-07-24T13:51:06.209Z,25.00
2023-07-24T13:53:34.384Z,24.80
2023-07-24T13:56:02.398Z,24.70
2023-07-24T13:58:30.636Z,24.90
2023-07-24T14:00:58.967Z,25.20
2023-07-24T14:03:30.447Z,25.30
2023-07-24T14:06:00.624Z,25.20
2023-07-24T14:08:28.693Z,25.30
2023-07-24T14:10:56.873Z,25.10
2023-07-24T14:13:25.028Z,25.10
2023-07-24T14:15:53.157Z,25.10
2023-07-24T14:18:21.257Z,25.00
2023-07-24T14:20:49.478Z,25.00
2023-07-24T14:23:18.842Z,25.00
2023-07-24T14:25:46.928Z,25.00
2023-07-24T14:28:15.495Z,24.90
2023-07-24T14:30:43.542Z,24.90
2023-07-24T14:33:11.769Z,25.00
2023-07-24T14:35:39.969Z,24.90
2023-07-24T14:38:08.146Z,24.90
2023-07-24T14:40:37.541Z,24.70
2023-07-24T14:43:07.733Z,24.60
2023-07-24T14:45:39.999Z,24.50
2023-07-24T14:48:10.824Z,24.50
2023-07-24T14:50:39.042Z,24.40
2023-07-24T14:53:07.043Z,24.30
2023-07-24T14:55:35.138Z,24.20
2023-07-24T14:58:04.546Z,24.30
2023-07-24T15:00:33.957Z,24.40
2023-07-24T15:03:02.697Z,24.20
2023-07-24T15:05:30.994Z,23.80
2023-07-24T15:07:58.984Z,23.40
2023-07-24T15:10:26.965Z,23.00
2023-07-24T15:12:54.970Z,22.80
2023-07-24T15:15:24.491Z,22.80
2023-07-24T15:17:52.642Z,22.80
2023-07-24T15:20:20.810Z,22.60
2023-07-24T15:22:48.861Z,22.50
2023-07-24T15:25:16.866Z,22.40
2023-07-24T15:27:44.945Z,22.60
2023-07-24T15:30:13.135Z,22.70
2023-07-24T15:32:42.636Z,22.70
2023-07-24T15:35:10.811Z,22.70
2023-07-24T15:37:38.898Z,22.80
2023-07-24T15:40:07.772Z,23.00
2023-07-24T15:42:35.827Z,23.10
2023-07-24T15:45:04.539Z,22.90
2023-07-24T15:47:32.624Z,22.90
2023-07-24T15:50:03.335Z,22.80
2023-07-24T15:52:31.459Z,22.70
2023-07-24T15:55:00.546Z,22.70
2023-07-24T15:57:28.737Z,22.70
2023-07-24T15:59:56.755Z,22.70
2023-07-24T16:02:25.032Z,22.60
2023-07-24T16:04:53.645Z,22.70
2023-07-24T16:07:23.025Z,22.80
2023-07-24T16:09:51.076Z,22.60
2023-07-24T16:12:19.173Z,22.60
2023-07-24T16:14:47.370Z,22.80
2023-07-24T16:17:15.396Z,22.80
2023-07-24T16:19:43.585Z,23.00
2023-07-24T16:22:17.042Z,22.90
2023-07-24T16:24:46.887Z,23.00
2023-07-24T16:27:15.080Z,23.10
2023-07-24T16:29:43.123Z,23.20
2023-07-24T16:32:11.123Z,23.20
2023-07-24T16:34:39.167Z,23.20
2023-07-24T16:37:08.021Z,23.20
2023-07-24T16:39:36.167Z,23.20
2023-07-24T16:42:05.768Z,23.00
2023-07-24T16:44:37.435Z,23.00
2023-07-24T16:49:37.372Z,23.20
2023-07-24T16:52:07.032Z,23.20
2023-07-24T16:54:36.765Z,23.20
2023-07-24T16:57:06.874Z,23.30
2023-07-24T16:59:35.350Z,23.40
2023-07-24T17:02:03.539Z,23.40
2023-07-24T17:04:32.214Z,23.30
2023-07-24T17:07:02.057Z,23.40
2023-07-24T17:09:30.426Z,23.50
2023-07-24T17:11:59.163Z,23.40
2023-07-24T17:14:28.798Z,23.50
2023-07-24T17:16:57.248Z,23.50
2023-07-24T17:19:25.327Z,23.40
2023-07-24T17:21:53.627Z,23.30
2023-07-24T17:24:21.802Z,23.20
2023-07-24T17:26:49.869Z,23.10
2023-07-24T17:29:17.907Z,23.00
2023-07-24T17:31:47.496Z,23.00
2023-07-24T17:34:15.641Z,22.80
2023-07-24T17:36:43.699Z,22.80
2023-07-24T17:39:11.840Z,22.90
2023-07-24T17:41:40.481Z,22.80
2023-07-24T17:44:08.559Z,22.70
2023-07-24T17:46:36.790Z,22.80
2023-07-24T17:49:06.202Z,22.80
2023-07-24T17:51:34.518Z,23.00
2023-07-24T17:54:02.799Z,23.00
2023-07-24T17:56:30.965Z,23.00
2023-07-24T17:58:59.096Z,23.20
2023-07-24T18:01:27.277Z,23.30
2023-07-24T18:03:55.338Z,23.40
2023-07-24T18:06:24.886Z,23.40
2023-07-24T18:08:52.930Z,23.40
2023-07-24T18:11:21.063Z,23.20
2023-07-24T18:13:49.228Z,23.20
2023-07-24T18:16:17.829Z,23.30
2023-07-24T18:18:45.938Z,23.40
2023-07-24T18:21:14.020Z,23.40
2023-07-24T18:23:43.514Z,23.30
2023-07-24T18:26:11.957Z,23.40
2023-07-24T18:28:40.081Z,23.30
2023-07-24T18:31:09.198Z,23.20
2023-07-24T18:33:37.327Z,23.40
2023-07-24T18:36:05.978Z,23.40
2023-07-24T18:38:34.242Z,23.40
2023-07-24T18:41:03.737Z,23.30
2023-07-24T18:43:31.844Z,23.70
2023-07-24T18:45:59.980Z,23.70
2023-07-24T18:48:28.172Z,23.70
2023-07-24T18:50:56.204Z,23.50
2023-07-24T18:53:24.317Z,23.20
2023-07-24T18:55:53.228Z,23.10
2023-07-24T18:58:22.710Z,23.00
2023-07-24T19:00:50.933Z,23.00
2023-07-24T19:03:18.897Z,23.10
2023-07-24T19:05:47.042Z,23.10
2023-07-24T19:08:15.075Z,23.20
2023-07-24T19:10:43.113Z,23.30
2023-07-24T19:13:11.178Z,23.00
2023-07-24T19:15:40.741Z,22.80
2023-07-24T19:18:08.999Z,22.50
2023-07-24T19:20:37.064Z,22.40
2023-07-24T19:23:05.274Z,22.40
2023-07-24T19:25:33.330Z,22.40
2023-07-24T19:28:01.407Z,22.50
2023-07-24T19:30:29.394Z,22.70
2023-07-24T19:32:58.860Z,22.90
2023-07-24T19:35:26.924Z,22.80
2023-07-24T19:37:54.909Z,22.70
2023-07-24T19:40:23.183Z,22.90
2023-07-24T19:42:51.230Z,22.90
2023-07-24T19:45:19.398Z,22.60
2023-07-24T19:47:47.533Z,22.20
2023-07-24T19:50:17.093Z,21.90
2023-07-24T19:52:48.937Z,21.90
2023-07-24T19:55:17.164Z,21.90
2023-07-24T19:57:46.601Z,22.10
2023-07-24T20:00:15.303Z,22.10
2023-07-24T20:02:43.428Z,22.00
2023-07-24T20:05:11.777Z,21.70
2023-07-24T20:07:41.177Z,21.50
2023-07-24T20:10:09.917Z,21.60
2023-07-24T20:12:37.910Z,21.40
2023-07-24T20:15:06.945Z,21.10
2023-07-24T20:17:35.027Z,21.10
2023-07-24T20:20:04.177Z,21.10
2023-07-24T20:22:32.666Z,21.30
2023-07-24T20:25:02.134Z,21.40
2023-07-24T20:27:30.192Z,21.30
2023-07-24T20:29:58.381Z,21.20
2023-07-24T20:32:27.645Z,21.20
2023-07-24T20:34:55.761Z,21.20
2023-07-24T20:37:23.988Z,21.20
2023-07-24T20:39:52.029Z,21.30
2023-07-24T20:42:21.437Z,21.50
2023-07-24T20:44:53.646Z,21.50
2023-07-24T20:47:22.346Z,21.30
2023-07-24T20:49:50.634Z,21.50
2023-07-24T20:52:18.725Z,21.70
2023-07-24T20:54:48.567Z,21.70
2023-07-24T20:57:16.667Z,21.70
2023-07-24T20:59:47.152Z,21.70
2023-07-24T21:02:15.459Z,21.70
2023-07-24T21:04:43.612Z,21.70
2023-07-24T21:07:11.755Z,21.70
2023-07-24T21:09:39.961Z,21.60
2023-07-24T21:12:08.766Z,21.60
2023-07-24T21:14:36.932Z,21.70
2023-07-24T21:17:06.921Z,21.50
2023-07-24T21:19:35.022Z,21.20
2023-07-24T21:22:03.018Z,21.20
2023-07-24T21:24:31.074Z,21.10
2023-07-24T21:26:59.133Z,21.00
2023-07-24T21:29:27.140Z,20.80
2023-07-24T21:31:55.162Z,20.90
2023-07-24T21:34:24.921Z,20.90
2023-07-24T21:36:52.943Z,20.90
2023-07-24T21:39:21.159Z,20.70
2023-07-24T21:41:49.214Z,20.60
2023-07-24T21:44:17.254Z,20.70
2023-07-24T21:46:45.328Z,20.70
2023-07-24T21:49:13.460Z,21.00
2023-07-24T21:51:42.828Z,21.00
2023-07-24T21:54:10.824Z,21.00
2023-07-24T21:56:38.857Z,21.00
2023-07-24T21:59:06.878Z,21.00
2023-07-24T22:01:35.325Z,21.20
2023-07-24T22:04:03.905Z,21.30
2023-07-24T22:06:32.044Z,21.20
2023-07-24T22:09:01.537Z,21.50
2023-07-24T22:11:32.175Z,21.60
2023-07-24T22:14:00.471Z,21.50
2023-07-24T22:16:28.579Z,21.20
2023-07-24T22:18:56.666Z,21.00
2023-07-24T22:21:24.751Z,20.80
2023-07-24T22:23:52.828Z,21.00
2023-07-24T22:26:22.235Z,21.20
2023-07-24T22:28:50.278Z,21.50
2023-07-24T22:31:18.408Z,21.60
2023-07-24T22:33:46.561Z,21.80
2023-07-24T22:36:14.674Z,21.90
2023-07-24T22:38:42.813Z,21.90
2023-07-24T22:41:12.208Z,21.70
2023-07-24T22:43:41.731Z,21.40
2023-07-24T22:46:09.986Z,21.50
2023-07-24T22:48:38.112Z,21.50
2023-07-24T22:51:06.203Z,21.50
2023-07-24T22:53:34.251Z,21.60
2023-07-24T22:56:02.247Z,21.60
2023-07-24T22:58:30.348Z,21.60
2023-07-24T23:00:59.783Z,21.70
2023-07-24T23:03:28.033Z,21.50
2023-07-24T23:05:55.114Z,21.50
2023-07-24T23:08:23.258Z,21.60
2023-07-24T23:10:51.550Z,21.50
2023-07-24T23:13:20.891Z,21.40
2023-07-24T23:15:48.837Z,21.20
2023-07-24T23:18:18.238Z,21.10
2023-07-24T23:20:46.332Z,21.20
2023-07-24T23:23:14.331Z,21.00
2023-07-24T23:25:42.417Z,20.90
2023-07-24T23:28:10.518Z,20.90
2023-07-24T23:30:41.616Z,20.90
2023-07-24T23:33:09.942Z,20.50
2023-07-24T23:35:39.548Z,20.40
2023-07-24T23:38:07.729Z,20.30
2023-07-24T23:40:35.740Z,20.20
2023-07-24T23:43:03.818Z,20.50
2023-07-24T23:45:33.544Z,20.90
2023-07-24T23:48:01.676Z,21.30
2023-07-24T23:50:30.060Z,21.50
2023-07-24T23:52:59.937Z,21.70
2023-07-24T23:55:31.213Z,21.50
2023-07-24T23:57:59.265Z,21.40
